Impacts TAF Board INFO
FOR SITUATIONAL AWARENESS. NOT TO BE USED FOR FLIGHT PLANNING PURPOSES.
IDs:

KLGA - New York/La Guardia, NY, US

Issued at 1907 UTC 16 Aug 2018
Updated at 2020 UTC 16 Aug 2018
Potential Impact None Slight Moderate High
Time1951Z 16/21Z 16/22Z 16/23Z 17/00Z 17/01Z 17/02Z 17/03Z 17/04Z 17/05Z 17/06Z 17/07Z 17/08Z 17/09Z>>
Type OBS PRVL PRVL PRVL PRVL PRVL PRVL PRVL PRVL PRVL PRVL PRVL PRVL PRVL
VIS 10 >6 >6 >6 >6 >6 >6 >6 >6 >6 >6 >6 >6 >6
CIG -- -- -- -- -- -- -- -- -- -- -- -- -- --
Cover FEW SCT SCT SCT SCT SCT SCT SCT SCT SCT SCT SCT SCT SCT
FltCat VFR VFR VFR VFR VFR VFR VFR VFR VFR VFR VFR VFR VFR VFR
WX -- -- -- -- -- -- -- -- -- -- -- -- -- --
WDir 290 280 280 200 200 200 230 230 230 230 230 230 230 230
WSpd 8 12 12 10 10 10 7 7 7 7 7 7 7 7
WGst -- -- -- -- -- -- -- -- -- -- -- -- -- --

Raw TAF
KLGA 161907Z 1619/1724 28012KT P6SM FEW050 SCT200
  FM162300 20010KT P6SM FEW050 SCT200
  FM170200 23007KT P6SM FEW050 SCT200
  FM171300 20009KT P6SM FEW050 SCT150
  FM171500 19012KT P6SM FEW050 SCT150 SCT250
  FM171700 19014G23KT P6SM SCT050 SCT150 BKN250


Raw METAR
KLGA 161951Z 29008KT 10SM FEW060 FEW250 33/17 A3003 RMK AO2 SLP167 T03330167
KLGA 161851Z 26012G15KT 10SM FEW050 FEW250 33/16 A3004 RMK AO2 SLP171 T03330161
KLGA 161751Z 29007G16KT 10SM FEW050 FEW250 33/17 A3004 RMK AO2 SLP173 T03280172 10328 20267 58006

METAR Board
Radar Display
Forecast Discussion

FOR SITUATIONAL AWARENESS. NOT TO BE USED FOR FLIGHT PLANNING PURPOSES.